Terminal Aerodrome Forecast
Issued by NWS Sterling, VA

Current Version | Previous Version | Graphics & Text | Print | Product List | Glossary On
Versions: 1 2 3 4 5 6 7 8 9 10 11 12 13 14 15
000
FTUS41 KLWX 241738
TAFMRB
TAF
KMRB 241738Z 2418/2518 09004KT P6SM BKN050
     FM242300 VRB03KT P6SM FEW050 SCT250
     FM250800 VRB03KT P6SM BKN050
     FM251300 16007KT P6SM OVC050
     FM251700 16010G18KT P6SM BKN025 OVC050=

USA.gov is the U.S. government's official web portal to all federal, state and local government web resources and services.